Time;durP1;ratioP1;P1;durP2;ratioP2;P2;SDS_P1;SDS_P2;PMS_P1;PMS_P2;Temp;Humidity;BMP_temperature;BMP_pressure;BME280_temperature;BME280_humidity;BME280_pressure;Samples;Min_cycle;Max_cycle;Signal;HPM_P1;HPM_P2
2022/10/31 00:00:06;;;;;;;;;;;;;;;-143.57;100.00;51008.78;4963049;28;19929;-66
2022/10/31 00:02:36;;;;;;;;;;;;;;;-143.57;100.00;51018.72;4965326;28;20623;-66
2022/10/31 00:05:03;;;;;;;;;;;;;;;-143.57;100.00;51056.50;4962169;28;19930;-66
2022/10/31 00:07:30;;;;;;;;;;;;;;;-143.57;100.00;51028.66;4963585;28;19934;-67
2022/10/31 00:09:57;;;;;;;;;;;;;;;-143.57;100.00;51012.75;4962649;28;19930;-66
2022/10/31 00:12:23;;;;;;;;;;;;;;;-143.57;100.00;51028.66;4962978;28;19930;-67
2022/10/31 00:14:50;;;;;;;;;;;;;;;-143.57;100.00;51016.72;4965439;28;21381;-66
2022/10/31 00:17:17;;;;;;;;;;;;;;;-143.57;100.00;51016.72;4965737;28;19926;-67
2022/10/31 00:19:43;;;;;;;;;;;;;;;-143.57;100.00;51020.72;4962995;28;19930;-67
2022/10/31 00:22:10;;;;;;;;;;;;;;;-143.57;100.00;50992.88;4963812;28;19969;-66
2022/10/31 00:24:36;;;;;;;;;;;;;;;-143.57;100.00;51004.81;4963087;28;20014;-67
2022/10/31 00:27:03;;;;;;;;;;;;;;;-143.57;100.00;51028.66;4951289;28;19937;-67
2022/10/31 00:29:29;;;;;;;;;;;;;;;-143.57;100.00;51008.78;4961447;28;20064;-68
2022/10/31 00:31:56;;;;;;;;;;;;;;;-143.57;100.00;51016.72;4965943;28;20032;-67
2022/10/31 00:34:23;;;;;;;;;;;;;;;-143.57;100.00;50996.84;4967241;28;19930;-66
2022/10/31 00:36:51;;;;;;;;;;;;;;;-143.57;100.00;51026.69;4963602;28;19930;-66
2022/10/31 00:39:17;;;;;;;;;;;;;;;-143.57;100.00;51032.63;4968513;28;19930;-66
2022/10/31 00:41:44;;;;;;;;;;;;;;;-143.57;100.00;51054.50;4958393;28;20652;-67
2022/10/31 00:44:11;;;;;;;;;;;;;;;-143.57;100.00;51016.72;4965246;28;19960;-67
2022/10/31 00:46:38;;;;;;;;;;;;;;;-143.57;100.00;51008.78;4965605;28;19977;-67
2022/10/31 00:49:04;;;;;;;;;;;;;;;-143.57;100.00;51004.81;4964559;28;19937;-67
2022/10/31 00:51:31;;;;;;;;;;;;;;;-143.57;100.00;51014.75;4940884;28;19927;-67
2022/10/31 00:53:58;;;;;;;;;;;;;;;-143.57;100.00;50996.84;4960911;28;20013;-67
2022/10/31 00:56:24;;;;;;;;;;;;;;;-143.57;100.00;51020.72;4946998;28;19930;-67
2022/10/31 00:58:51;;;;;;;;;;;;;;;-143.57;100.00;50996.84;4961757;28;19937;-67
2022/10/31 01:01:19;;;;;;;;;;;;;;;-143.57;100.00;51048.53;4968463;28;19930;-67
2022/10/31 01:03:46;;;;;;;;;;;;;;;-143.57;100.00;51040.59;4968100;28;19934;-67
2022/10/31 01:06:13;;;;;;;;;;;;;;;-143.57;100.00;51016.72;4964915;28;19930;-67
2022/10/31 01:08:40;;;;;;;;;;;;;;;-143.57;100.00;51008.78;4962052;28;19933;-67
2022/10/31 01:11:11;;;;;;;;;;;;;;;-143.57;100.00;51004.81;4940938;28;19955;-67
2022/10/31 01:13:39;;;;;;;;;;;;;;;-143.57;100.00;50996.84;4972320;28;19934;-67
2022/10/31 01:16:06;;;;;;;;;;;;;;;-143.57;100.00;51048.53;4962316;28;19939;-67
2022/10/31 01:18:34;;;;;;;;;;;;;;;-143.57;100.00;51008.78;4963341;28;19934;-67
2022/10/31 01:21:08;;;;;;;;;;;;;;;-143.57;100.00;51032.63;4961076;28;19930;-67
2022/10/31 01:23:34;;;;;;;;;;;;;;;-143.57;100.00;51008.78;4967581;28;20036;-67
2022/10/31 01:26:10;;;;;;;;;;;;;;;-143.57;100.00;51020.72;4961730;28;19987;-67
2022/10/31 01:28:43;;;;;;;;;;;;;;;-143.57;100.00;51008.78;4964818;28;19934;-67
2022/10/31 01:31:09;;;;;;;;;;;;;;;-143.57;100.00;51028.66;4968321;28;19926;-67
2022/10/31 01:33:36;;;;;;;;;;;;;;;-143.57;100.00;51016.72;4951613;28;19930;-67
2022/10/31 01:36:15;;;;;;;;;;;;;;;-143.57;100.00;51008.78;4967698;28;20060;-68
2022/10/31 01:38:42;;;;;;;;;;;;;;;-143.57;100.00;51020.72;4964232;28;19926;-67
2022/10/31 01:41:11;;;;;;;;;;;;;;;-143.57;100.00;51028.66;4962937;28;19934;-68
2022/10/31 01:43:57;;;;;;;;;;;;;;;-143.57;100.00;51048.53;4951649;28;20453;-68
2022/10/31 01:46:47;;;;;;;;;;;;;;;-143.57;100.00;51016.72;4954180;28;19926;-68
2022/10/31 01:49:20;;;;;;;;;;;;;;;-143.57;100.00;51024.69;4938061;28;19936;-67
2022/10/31 01:51:54;;;;;;;;;;;;;;;-143.57;100.00;51000.84;4965375;28;19929;-67
2022/10/31 01:54:23;;;;;;;;;;;;;;;-143.57;100.00;51004.81;4964434;28;19930;-66
2022/10/31 01:56:52;;;;;;;;;;;;;;;-143.57;100.00;51030.66;4965854;28;20304;-66
2022/10/31 01:59:20;;;;;;;;;;;;;;;-143.57;100.00;51042.56;4969204;28;19941;-67
2022/10/31 02:01:50;;;;;;;;;;;;;;;-143.57;100.00;51020.72;4962289;28;19933;-66
2022/10/31 02:04:17;;;;;;;;;;;;;;;-143.57;100.00;51028.66;4964077;28;19965;-66
2022/10/31 02:06:58;;;;;;;;;;;;;;;-143.57;100.00;51016.72;4966506;28;19936;-66
2022/10/31 02:09:26;;;;;;;;;;;;;;;-143.57;100.00;51032.63;4960709;28;20311;-66
2022/10/31 02:11:56;;;;;;;;;;;;;;;-143.57;100.00;51044.56;4961656;28;19933;-66
2022/10/31 02:14:23;;;;;;;;;;;;;;;-143.57;100.00;51024.69;4964056;28;20073;-66
2022/10/31 02:16:51;;;;;;;;;;;;;;;-143.57;100.00;51028.66;4966580;28;20296;-67
2022/10/31 02:19:29;;;;;;;;;;;;;;;-143.57;100.00;50992.88;4969016;28;20402;-66
2022/10/31 02:22:00;;;;;;;;;;;;;;;-143.57;100.00;51020.72;4963324;28;20644;-66
2022/10/31 02:24:45;;;;;;;;;;;;;;;-143.57;100.00;51000.84;4967413;28;19930;-66
2022/10/31 02:27:12;;;;;;;;;;;;;;;-143.57;100.00;51020.72;4957086;28;19930;-67
2022/10/31 02:30:04;;;;;;;;;;;;;;;-143.57;100.00;51036.63;4962040;28;20406;-67
2022/10/31 02:32:43;;;;;;;;;;;;;;;-143.57;100.00;51040.59;4968578;28;20368;-66
2022/10/31 02:35:13;;;;;;;;;;;;;;;-143.57;100.00;51022.69;4948793;28;19984;-67
2022/10/31 02:37:56;;;;;;;;;;;;;;;-143.57;100.00;50996.84;4948781;28;19933;-67
2022/10/31 02:40:26;;;;;;;;;;;;;;;-143.57;100.00;51024.69;4963929;28;19930;-67
2022/10/31 02:43:25;;;;;;;;;;;;;;;-143.57;100.00;51028.66;4949636;28;19930;-67
2022/10/31 02:45:59;;;;;;;;;;;;;;;-143.57;100.00;51028.66;4969183;28;19932;-68
2022/10/31 02:48:31;;;;;;;;;;;;;;;-143.57;100.00;51048.53;4949113;28;20044;-68
2022/10/31 02:51:00;;;;;;;;;;;;;;;-143.57;100.00;51034.63;4964386;28;19937;-67
2022/10/31 02:53:31;;;;;;;;;;;;;;;-143.57;100.00;51020.72;4966819;28;19933;-67
2022/10/31 02:56:00;;;;;;;;;;;;;;;-143.57;100.00;51014.75;4935222;28;19938;-67
2022/10/31 02:58:30;;;;;;;;;;;;;;;-143.57;100.00;51004.81;4963537;28;19930;-67
2022/10/31 03:00:57;;;;;;;;;;;;;;;-143.57;100.00;51032.63;4961377;28;19933;-68
2022/10/31 03:03:32;;;;;;;;;;;;;;;-143.57;100.00;51020.72;4957341;28;20165;-67
2022/10/31 03:06:08;;;;;;;;;;;;;;;-143.57;100.00;51028.66;4946710;28;20455;-67
2022/10/31 03:08:35;;;;;;;;;;;;;;;-143.57;100.00;51048.53;4959193;28;20188;-67
2022/10/31 03:11:04;;;;;;;;;;;;;;;-143.57;100.00;51028.66;4962168;28;19926;-67
2022/10/31 03:13:32;;;;;;;;;;;;;;;-143.57;100.00;51022.69;4963497;28;19930;-67
2022/10/31 03:16:17;;;;;;;;;;;;;;;-143.57;100.00;51056.50;4967094;28;19987;-66
2022/10/31 03:18:58;;;;;;;;;;;;;;;-143.57;100.00;51024.69;4942222;28;19938;-67
2022/10/31 03:21:32;;;;;;;;;;;;;;;-143.57;100.00;51068.41;4940732;28;20072;-67
2022/10/31 03:24:01;;;;;;;;;;;;;;;-143.57;100.00;51048.53;4964091;28;20044;-66
2022/10/31 03:26:27;;;;;;;;;;;;;;;-143.57;100.00;51024.69;4941425;28;19936;-65
2022/10/31 03:29:02;;;;;;;;;;;;;;;-143.57;99.61;51028.66;4947378;28;19949;-65
2022/10/31 03:31:33;;;;;;;;;;;;;;;-143.57;98.92;51012.75;4952981;28;19930;-66
2022/10/31 03:34:02;;;;;;;;;;;;;;;-143.57;99.33;51012.75;4967112;28;19931;-66
2022/10/31 03:36:33;;;;;;;;;;;;;;;-143.57;99.29;51044.56;4964689;28;19968;-66
2022/10/31 03:39:04;;;;;;;;;;;;;;;-143.57;99.92;51028.66;4945174;28;19938;-66
2022/10/31 03:41:32;;;;;;;;;;;;;;;-143.57;99.88;51030.66;4959075;28;19930;-66
2022/10/31 03:44:02;;;;;;;;;;;;;;;-143.57;99.70;51036.63;4948613;28;19965;-66
2022/10/31 03:46:28;;;;;;;;;;;;;;;-143.57;99.90;51020.72;4951607;28;20619;-66
2022/10/31 03:48:58;;;;;;;;;;;;;;;-143.57;100.00;51020.72;4949451;28;19930;-66
2022/10/31 03:51:24;;;;;;;;;;;;;;;-143.57;99.74;51048.53;4945841;28;20222;-66
2022/10/31 03:53:51;;;;;;;;;;;;;;;-143.57;100.00;50992.88;4963784;28;19977;-66
2022/10/31 03:56:26;;;;;;;;;;;;;;;-143.57;100.00;51040.59;4962389;28;20161;-67
2022/10/31 03:59:00;;;;;;;;;;;;;;;-143.57;100.00;51024.69;4942059;28;19930;-67
2022/10/31 04:01:30;;;;;;;;;;;;;;;-143.57;100.00;51040.59;4949346;28;20582;-67
2022/10/31 04:03:58;;;;;;;;;;;;;;;-143.57;100.00;51008.78;4963438;28;20690;-67
2022/10/31 04:06:25;;;;;;;;;;;;;;;-143.57;100.00;51048.53;4968750;28;19934;-66
2022/10/31 04:08:56;;;;;;;;;;;;;;;-143.57;100.00;51024.69;4967349;28;19933;-66
2022/10/31 04:11:26;;;;;;;;;;;;;;;-143.57;100.00;51032.63;4947890;28;19934;-66
2022/10/31 04:14:15;;;;;;;;;;;;;;;-143.57;100.00;51066.44;4956680;28;19942;-66
2022/10/31 04:16:43;;;;;;;;;;;;;;;-143.57;100.00;51052.50;4964523;28;19934;-66
2022/10/31 04:19:11;;;;;;;;;;;;;;;-143.57;100.00;51014.75;4942128;28;19930;-66
2022/10/31 04:21:39;;;;;;;;;;;;;;;-143.57;100.00;51056.50;4967044;28;19930;-66
2022/10/31 04:24:06;;;;;;;;;;;;;;;-143.57;100.00;51060.47;4962271;28;20005;-67
2022/10/31 04:26:33;;;;;;;;;;;;;;;-143.57;100.00;51060.47;4964036;28;19930;-66
2022/10/31 04:29:00;;;;;;;;;;;;;;;-143.57;100.00;51080.34;4964145;28;20005;-66
2022/10/31 04:31:27;;;;;;;;;;;;;;;-143.57;100.00;51032.63;4965977;28;19936;-67
2022/10/31 04:33:54;;;;;;;;;;;;;;;-143.57;100.00;51044.56;4967583;28;19934;-64
2022/10/31 04:36:21;;;;;;;;;;;;;;;-143.57;100.00;51044.56;4972539;28;19930;-65
2022/10/31 04:38:47;;;;;;;;;;;;;;;-143.57;100.00;51036.63;4956199;28;19964;-66
2022/10/31 04:41:32;;;;;;;;;;;;;;;-143.57;100.00;51056.50;4958418;28;20016;-66
2022/10/31 04:44:06;;;;;;;;;;;;;;;-143.57;100.00;51044.56;4965507;28;19934;-66
2022/10/31 04:46:33;;;;;;;;;;;;;;;-143.57;100.00;51020.72;4963994;28;19931;-66
2022/10/31 04:49:00;;;;;;;;;;;;;;;-143.57;100.00;51056.50;4963462;28;19922;-65
2022/10/31 04:51:27;;;;;;;;;;;;;;;-143.57;100.00;51016.72;4939078;28;19933;-66
2022/10/31 04:53:54;;;;;;;;;;;;;;;-143.57;100.00;51052.50;4943497;28;19927;-65
2022/10/31 04:56:41;;;;;;;;;;;;;;;-143.57;100.00;51052.50;4941602;28;19931;-66
2022/10/31 04:59:13;;;;;;;;;;;;;;;-143.57;100.00;51052.50;4960817;28;20442;-66
2022/10/31 05:01:47;;;;;;;;;;;;;;;-143.57;100.00;51064.44;4950282;28;20748;-65
2022/10/31 05:04:17;;;;;;;;;;;;;;;-143.57;100.00;51044.56;4948146;28;20049;-65
2022/10/31 05:06:43;;;;;;;;;;;;;;;-143.57;100.00;51036.63;4960671;28;19931;-65
2022/10/31 05:09:10;;;;;;;;;;;;;;;-143.57;100.00;51032.63;4963460;28;19930;-66
2022/10/31 05:11:37;;;;;;;;;;;;;;;-143.57;100.00;51022.69;4959567;28;20001;-66
2022/10/31 05:14:33;;;;;;;;;;;;;;;-143.57;100.00;51064.44;4923928;28;20479;-65
2022/10/31 05:17:18;;;;;;;;;;;;;;;-143.57;100.00;51044.56;4950084;28;19936;-64
2022/10/31 05:20:08;;;;;;;;;;;;;;;-143.57;100.00;51042.56;4959097;28;19927;-65
2022/10/31 05:22:59;;;;;;;;;;;;;;;-143.57;100.00;51080.34;4964478;28;20689;-65
2022/10/31 05:25:27;;;;;;;;;;;;;;;-143.57;100.00;51052.50;4958899;28;19927;-65
2022/10/31 05:27:55;;;;;;;;;;;;;;;-143.57;100.00;51032.63;4944951;28;19938;-65
2022/10/31 05:30:23;;;;;;;;;;;;;;;-143.57;100.00;51020.72;4947416;28;19926;-66
2022/10/31 05:32:50;;;;;;;;;;;;;;;-143.57;100.00;51020.72;4947756;28;19933;-66
2022/10/31 05:35:44;;;;;;;;;;;;;;;-143.57;100.00;51028.66;4944078;28;20036;-66
2022/10/31 05:38:31;;;;;;;;;;;;;;;-143.57;100.00;51024.69;4945396;28;19981;-66
2022/10/31 05:41:07;;;;;;;;;;;;;;;-143.57;100.00;51086.31;4945911;28;19933;-65
2022/10/31 05:43:34;;;;;;;;;;;;;;;-143.57;100.00;51040.59;4962198;28;19930;-65
2022/10/31 05:46:04;;;;;;;;;;;;;;;-143.57;100.00;51048.53;4941240;28;20707;-65
2022/10/31 05:48:49;;;;;;;;;;;;;;;-143.57;100.00;51060.47;4947682;28;20097;-65
2022/10/31 05:51:34;;;;;;;;;;;;;;;-143.57;100.00;51048.53;4942857;28;19933;-66
2022/10/31 05:54:02;;;;;;;;;;;;;;;-143.57;100.00;51036.63;4950796;28;20014;-65
2022/10/31 05:56:29;;;;;;;;;;;;;;;-143.57;100.00;51080.34;4940957;28;19934;-65
2022/10/31 05:58:56;;;;;;;;;;;;;;;-143.57;100.00;51064.44;4945749;28;20241;-66
2022/10/31 06:01:25;;;;;;;;;;;;;;;-143.57;100.00;51040.59;4964003;28;20002;-65
2022/10/31 06:03:52;;;;;;;;;;;;;;;-143.57;100.00;51046.56;4968561;28;19927;-66
2022/10/31 06:06:22;;;;;;;;;;;;;;;-143.57;100.00;51050.53;4939892;28;20412;-66
2022/10/31 06:08:48;;;;;;;;;;;;;;;-143.57;100.00;51096.25;4960435;28;19926;-67
2022/10/31 06:11:19;;;;;;;;;;;;;;;-143.57;100.00;51048.53;4942744;28;20046;-67
2022/10/31 06:14:00;;;;;;;;;;;;;;;-143.57;100.00;51028.66;4949232;28;19937;-67
2022/10/31 06:16:49;;;;;;;;;;;;;;;-143.57;100.00;51092.28;4945128;28;20065;-67
2022/10/31 06:19:34;;;;;;;;;;;;;;;-143.57;100.00;51076.38;4948673;28;19937;-67
2022/10/31 06:22:01;;;;;;;;;;;;;;;-143.57;100.00;51036.63;4941167;28;20588;-67
2022/10/31 06:24:28;;;;;;;;;;;;;;;-143.57;100.00;51018.72;4950780;28;20305;-67
2022/10/31 06:27:13;;;;;;;;;;;;;;;-143.57;100.00;51072.41;4944425;28;19953;-66
2022/10/31 06:29:40;;;;;;;;;;;;;;;-143.57;100.00;51036.63;4959517;28;20459;-67
2022/10/31 06:32:11;;;;;;;;;;;;;;;-143.57;100.00;51072.41;4962580;28;19941;-67
2022/10/31 06:34:42;;;;;;;;;;;;;;;-143.57;100.00;51072.41;4961115;28;19931;-67
2022/10/31 06:37:10;;;;;;;;;;;;;;;-143.57;100.00;51048.53;4944319;28;19926;-67
2022/10/31 06:39:38;;;;;;;;;;;;;;;-143.57;100.00;51048.53;4944922;28;20505;-67
2022/10/31 06:42:08;;;;;;;;;;;;;;;-143.57;100.00;51056.50;4943444;28;19946;-67
2022/10/31 06:44:35;;;;;;;;;;;;;;;-143.57;98.64;51052.50;4958454;28;19930;-67
2022/10/31 06:47:20;;;;;;;;;;;;;;;-143.57;94.35;51096.25;4945236;28;19933;-68
2022/10/31 06:50:04;;;;;;;;;;;;;;;-143.57;91.78;51088.28;4944636;28;19938;-67
2022/10/31 06:52:30;;;;;;;;;;;;;;;-143.57;89.87;51076.38;4967396;28;19930;-67
2022/10/31 06:54:57;;;;;;;;;;;;;;;-143.57;88.15;51056.50;4966569;28;19934;-66
2022/10/31 06:57:24;;;;;;;;;;;;;;;-143.57;85.70;51038.59;4963664;28;19930;-67
2022/10/31 06:59:50;;;;;;;;;;;;;;;-143.57;82.88;51072.41;4943694;28;19934;-67
2022/10/31 07:02:21;;;;;;;;;;;;;;;-143.57;82.47;51060.47;4964789;28;19926;-66
2022/10/31 07:04:49;;;;;;;;;;;;;;;-143.57;80.91;51094.25;4944539;28;20028;-67
2022/10/31 07:07:17;;;;;;;;;;;;;;;-143.57;80.19;51072.41;4952473;28;20424;-68
2022/10/31 07:09:44;;;;;;;;;;;;;;;-143.57;78.84;51028.66;4948805;28;19930;-68
2022/10/31 07:12:15;;;;;;;;;;;;;;;-143.57;78.74;51094.25;4962971;28;20447;-68
2022/10/31 07:14:48;;;;;;;;;;;;;;;-143.57;77.31;51056.50;4959818;28;19937;-68
2022/10/31 07:17:15;;;;;;;;;;;;;;;-143.57;76.65;51080.34;4963224;28;20033;-68
2022/10/31 07:19:44;;;;;;;;;;;;;;;-143.57;75.36;51036.63;4949699;28;19941;-68
2022/10/31 07:22:12;;;;;;;;;;;;;;;-143.57;75.48;51064.44;4949291;28;20655;-68
2022/10/31 07:24:42;;;;;;;;;;;;;;;-143.57;73.63;51044.56;4959142;28;19976;-67
2022/10/31 07:27:14;;;;;;;;;;;;;;;-143.57;74.28;51036.63;4965204;28;19948;-68
2022/10/31 07:29:43;;;;;;;;;;;;;;;-143.57;72.92;51068.41;4949797;28;19938;-68
2022/10/31 07:32:10;;;;;;;;;;;;;;;-143.57;72.92;51088.28;4963739;28;19934;-68
2022/10/31 07:34:44;;;;;;;;;;;;;;;-143.57;71.70;51040.59;4971390;28;19934;-68
2022/10/31 07:37:33;;;;;;;;;;;;;;;-143.57;71.33;51056.50;4957943;28;19937;-68
2022/10/31 07:40:00;;;;;;;;;;;;;;;-143.57;71.26;51070.41;4953838;28;20400;-67
2022/10/31 07:42:34;;;;;;;;;;;;;;;-143.57;70.59;51036.63;4961627;28;19976;-68
2022/10/31 07:45:01;;;;;;;;;;;;;;;-143.57;70.71;51072.41;4965012;28;20088;-68
2022/10/31 07:48:05;;;;;;;;;;;;;;;-143.57;69.89;51068.41;4967202;28;19937;-68
2022/10/31 07:50:50;;;;;;;;;;;;;;;-143.57;69.51;51052.50;4966913;28;19936;-68
2022/10/31 07:53:35;;;;;;;;;;;;;;;-143.57;68.96;51044.56;4966279;28;19938;-67
2022/10/31 07:56:12;;;;;;;;;;;;;;;-143.57;69.45;51058.47;4953552;28;19933;-67
2022/10/31 07:58:39;;;;;;;;;;;;;;;-143.57;69.85;51072.41;4942039;28;19931;-67
2022/10/31 08:01:06;;;;;;;;;;;;;;;-143.57;67.39;51040.59;4948872;28;19936;-67
2022/10/31 08:03:41;;;;;;;;;;;;;;;-143.57;67.41;51076.38;4946044;28;20601;-67
2022/10/31 08:06:40;;;;;;;;;;;;;;;-143.57;66.73;51008.78;4939640;28;19934;-68
2022/10/31 08:09:18;;;;;;;;;;;;;;;-143.57;67.43;51048.53;4945874;28;20012;-67
2022/10/31 08:11:45;;;;;;;;;;;;;;;-143.57;67.17;51060.47;4971624;28;19926;-67
2022/10/31 08:14:12;;;;;;;;;;;;;;;-143.57;66.69;51040.59;4948606;28;20047;-67
2022/10/31 08:16:38;;;;;;;;;;;;;;;-143.57;66.85;51086.31;4967898;28;20297;-67
2022/10/31 08:19:06;;;;;;;;;;;;;;;-143.57;66.75;51064.44;4965809;28;20577;-66
2022/10/31 08:21:36;;;;;;;;;;;;;;;-143.57;66.31;51076.38;4961313;28;20087;-68
2022/10/31 08:24:04;;;;;;;;;;;;;;;-143.57;65.41;51072.41;4964118;28;19932;-68
2022/10/31 08:26:32;;;;;;;;;;;;;;;-143.57;64.97;51064.44;4962066;28;20040;-66
2022/10/31 08:28:59;;;;;;;;;;;;;;;-143.57;64.88;51072.41;4961730;28;19981;-64
2022/10/31 08:31:33;;;;;;;;;;;;;;;-143.57;64.75;51058.47;4963870;28;20647;-65
2022/10/31 08:34:22;;;;;;;;;;;;;;;-143.57;64.42;51044.56;4963088;28;20540;-67
2022/10/31 08:37:12;;;;;;;;;;;;;;;-143.57;63.60;51054.50;4941064;28;19937;-67
2022/10/31 08:39:42;;;;;;;;;;;;;;;-143.57;62.90;51020.72;4940708;28;20020;-66
2022/10/31 08:42:09;;;;;;;;;;;;;;;-143.57;63.42;51054.50;4945056;28;19930;-66
2022/10/31 08:44:37;;;;;;;;;;;;;;;-143.57;62.40;51036.63;4954158;28;19934;-67
2022/10/31 08:47:04;;;;;;;;;;;;;;;-143.57;63.10;51068.41;4946331;28;20478;-67
2022/10/31 08:49:32;;;;;;;;;;;;;;;-143.57;61.75;51060.47;4937466;28;19930;-66
2022/10/31 08:51:59;;;;;;;;;;;;;;;-143.57;61.33;51056.50;4942893;28;19934;-67
2022/10/31 08:54:31;;;;;;;;;;;;;;;-143.57;61.46;51044.56;4947044;28;19930;-65
2022/10/31 08:57:27;;;;;;;;;;;;;;;-143.57;60.71;51066.44;4949878;28;19937;-66
2022/10/31 08:59:53;;;;;;;;;;;;;;;-143.57;59.95;51068.41;4953384;28;20499;-66
2022/10/31 09:02:25;;;;;;;;;;;;;;;-143.57;59.56;51084.31;4948709;28;19936;-67
2022/10/31 09:04:56;;;;;;;;;;;;;;;-143.57;58.87;51060.47;4951283;28;19930;-67
2022/10/31 09:07:23;;;;;;;;;;;;;;;-143.57;58.97;51064.44;4964372;28;20022;-66
2022/10/31 09:09:51;;;;;;;;;;;;;;;-143.57;58.28;51070.41;4959814;28;20735;-67
2022/10/31 09:12:19;;;;;;;;;;;;;;;-143.57;59.22;51072.41;4959727;28;19964;-66
2022/10/31 09:15:06;;;;;;;;;;;;;;;-143.57;58.36;51080.34;4934854;28;19941;-66
2022/10/31 09:17:56;;;;;;;;;;;;;;;-143.57;57.44;51060.47;4972496;28;19930;-66
2022/10/31 09:20:44;;;;;;;;;;;;;;;-143.57;57.76;51052.50;4971833;28;19930;-66
2022/10/31 09:23:15;;;;;;;;;;;;;;;-143.57;56.05;51050.53;4952465;28;19930;-66
2022/10/31 09:25:42;;;;;;;;;;;;;;;-143.57;56.09;51068.41;4957825;28;20596;-66
2022/10/31 09:28:34;;;;;;;;;;;;;;;-143.57;55.15;51080.34;4973833;28;20708;-67
2022/10/31 09:31:06;;;;;;;;;;;;;;;-143.57;55.33;51024.69;4972590;28;20323;-66
2022/10/31 09:33:48;;;;;;;;;;;;;;;-143.57;55.05;51064.44;4969603;28;19934;-66
2022/10/31 09:36:35;;;;;;;;;;;;;;;-143.57;54.97;51046.56;4962881;28;19926;-66
2022/10/31 09:39:04;;;;;;;;;;;;;;;-143.57;53.74;51020.72;4951074;28;19934;-66
2022/10/31 09:41:51;;;;;;;;;;;;;;;-143.57;53.53;51080.34;4952197;28;20025;-66
2022/10/31 09:44:29;;;;;;;;;;;;;;;-143.57;53.16;51036.63;4952500;28;19934;-65
2022/10/31 09:47:15;;;;;;;;;;;;;;;-143.57;52.73;51068.41;4968070;28;20431;-65
2022/10/31 09:50:12;;;;;;;;;;;;;;;-143.57;50.72;51046.56;4968230;28;19927;-65
2022/10/31 09:52:40;;;;;;;;;;;;;;;-143.57;50.35;51048.53;4971798;28;19934;-65
2022/10/31 09:55:14;;;;;;;;;;;;;;;-143.57;49.71;51028.66;4946271;28;20655;-65
2022/10/31 09:57:41;;;;;;;;;;;;;;;-143.57;49.66;51072.41;4970022;28;20009;-65
2022/10/31 10:00:15;;;;;;;;;;;;;;;-143.57;49.39;51056.50;4968245;28;19934;-66
2022/10/31 10:03:01;;;;;;;;;;;;;;;-143.57;49.23;51044.56;4955369;28;19926;-65
2022/10/31 10:05:31;;;;;;;;;;;;;;;-143.57;49.36;51044.56;4971460;28;19930;-65
2022/10/31 10:08:00;;;;;;;;;;;;;;;-143.57;48.56;51080.34;4967126;28;19985;-66
2022/10/31 10:11:08;;;;;;;;;;;;;;;-143.57;48.44;51040.59;4958383;28;19957;-67
2022/10/31 10:14:02;;;;;;;;;;;;;;;-143.57;47.99;51040.59;4951199;28;19940;-67
2022/10/31 10:16:33;;;;;;;;;;;;;;;-143.57;47.90;51038.59;4970061;28;20013;-66
2022/10/31 10:19:18;;;;;;;;;;;;;;;-143.57;47.48;51056.50;4970797;28;19930;-66
2022/10/31 10:21:50;;;;;;;;;;;;;;;-143.57;47.65;51036.63;4968682;28;20285;-65
2022/10/31 10:24:32;;;;;;;;;;;;;;;-143.57;47.45;51044.56;4971063;28;20441;-65
2022/10/31 10:27:05;;;;;;;;;;;;;;;-143.57;47.33;51064.44;4964893;28;19937;-65
2022/10/31 10:29:39;;;;;;;;;;;;;;;-143.57;46.62;51052.50;4968419;28;19961;-67
2022/10/31 10:32:13;;;;;;;;;;;;;;;-143.57;47.27;51012.75;4967384;28;19929;-65
2022/10/31 10:34:57;;;;;;;;;;;;;;;-143.57;45.94;51032.63;4968783;28;19930;-65
2022/10/31 10:37:28;;;;;;;;;;;;;;;-143.57;46.47;51088.28;4962798;28;20045;-66
2022/10/31 10:39:58;;;;;;;;;;;;;;;-143.57;44.98;51044.56;4967061;28;19929;-66
2022/10/31 10:48:20;;;;;;;;;;;;;;;-143.57;43.92;51068.41;4971202;28;19930;-67
2022/10/31 10:50:51;;;;;;;;;;;;;;;-143.57;43.67;51040.59;4962871;28;20757;-65
2022/10/31 10:53:21;;;;;;;;;;;;;;;-143.57;43.26;51052.50;4968731;28;19934;-65
2022/10/31 10:56:08;;;;;;;;;;;;;;;-143.57;42.23;51060.47;4970300;28;19968;-65
2022/10/31 10:58:36;;;;;;;;;;;;;;;-143.57;42.58;51044.56;4932019;28;20045;-65
2022/10/31 11:01:09;;;;;;;;;;;;;;;-143.57;42.95;51044.56;4967087;28;20382;-65
2022/10/31 11:03:36;;;;;;;;;;;;;;;-143.57;41.69;51052.50;4971365;28;19930;-65
2022/10/31 11:06:03;;;;;;;;;;;;;;;-143.57;40.76;51048.53;4966580;28;19925;-65
2022/10/31 11:08:29;;;;;;;;;;;;;;;-143.57;40.59;51048.53;4971863;28;20388;-65
2022/10/31 11:11:03;;;;;;;;;;;;;;;-143.57;40.76;51028.66;4963759;28;19938;-65
2022/10/31 11:13:31;;;;;;;;;;;;;;;-143.57;40.64;51028.66;4958554;28;20404;-66
2022/10/31 11:16:06;;;;;;;;;;;;;;;-143.57;40.08;51008.78;4958846;28;19935;-66
2022/10/31 11:18:34;;;;;;;;;;;;;;;-143.57;39.99;51052.50;4962666;28;19941;-67
2022/10/31 11:21:03;;;;;;;;;;;;;;;-143.57;40.13;51044.56;4967445;28;20883;-66
2022/10/31 11:23:30;;;;;;;;;;;;;;;-143.57;39.41;51076.38;4968577;28;20567;-66
2022/10/31 11:26:00;;;;;;;;;;;;;;;-143.57;38.89;51018.72;4966998;28;19930;-68
2022/10/31 11:28:32;;;;;;;;;;;;;;;-143.57;39.01;51068.41;4967245;28;19929;-68
2022/10/31 11:31:00;;;;;;;;;;;;;;;-143.57;38.81;51004.81;4967333;28;19976;-67
2022/10/31 11:33:29;;;;;;;;;;;;;;;-143.57;39.80;51056.50;4969830;28;19949;-68
2022/10/31 11:35:56;;;;;;;;;;;;;;;-143.57;39.58;51016.72;4961729;28;19992;-68
2022/10/31 11:38:31;;;;;;;;;;;;;;;-143.57;38.78;51054.50;4967145;28;20027;-68
2022/10/31 11:41:02;;;;;;;;;;;;;;;-143.57;38.72;51016.72;4968428;28;19934;-68
2022/10/31 11:43:29;;;;;;;;;;;;;;;-143.57;38.56;51056.50;4959905;28;19961;-68
2022/10/31 11:45:56;;;;;;;;;;;;;;;-143.57;38.02;51008.78;4953327;28;19933;-67
2022/10/31 11:48:24;;;;;;;;;;;;;;;-143.57;37.73;51036.63;4965146;28;20039;-66
2022/10/31 11:50:58;;;;;;;;;;;;;;;-143.57;37.29;51032.63;4971723;28;19930;-66
2022/10/31 11:53:29;;;;;;;;;;;;;;;-143.57;36.90;51028.66;4965370;28;20008;-66
2022/10/31 11:56:15;;;;;;;;;;;;;;;-143.57;36.86;51038.59;4968892;28;19984;-66
2022/10/31 11:58:42;;;;;;;;;;;;;;;-143.57;36.84;51032.63;4966405;28;19934;-66
2022/10/31 12:01:29;;;;;;;;;;;;;;;-143.57;36.60;51032.63;4965542;28;19930;-66
2022/10/31 12:04:18;;;;;;;;;;;;;;;-143.57;36.53;51044.56;4966101;28;20304;-65
2022/10/31 12:06:46;;;;;;;;;;;;;;;-143.57;35.96;51016.72;4970382;28;19937;-66
2022/10/31 12:09:23;;;;;;;;;;;;;;;-143.57;35.05;51016.72;4965627;28;19948;-66
2022/10/31 12:12:13;;;;;;;;;;;;;;;-143.57;34.99;51040.59;4965516;28;19926;-66
2022/10/31 12:15:02;;;;;;;;;;;;;;;-143.57;35.12;51016.72;4956804;28;19926;-66
2022/10/31 12:17:34;;;;;;;;;;;;;;;-143.57;34.25;51032.63;4966354;28;20020;-66
2022/10/31 12:20:17;;;;;;;;;;;;;;;-143.57;33.49;51016.72;4970574;28;19972;-66
2022/10/31 12:22:44;;;;;;;;;;;;;;;-143.57;33.01;51040.59;4950142;28;19970;-66
2022/10/31 12:25:19;;;;;;;;;;;;;;;-143.57;31.71;51026.69;4964149;28;19950;-66
2022/10/31 12:28:05;;;;;;;;;;;;;;;-143.57;30.65;51036.63;4955605;28;19931;-65
2022/10/31 12:30:31;;;;;;;;;;;;;;;-143.57;29.29;51020.72;4963223;28;20030;-65
2022/10/31 12:33:07;;;;;;;;;;;;;;;-143.57;28.55;50992.88;4968126;28;19934;-66
2022/10/31 12:35:36;;;;;;;;;;;;;;;-143.57;28.22;50996.84;4965077;28;19929;-66
2022/10/31 12:41:49;;;;;;;;;;;;;;;-143.57;26.29;50973.00;4963619;28;19991;-65
2022/10/31 12:44:34;;;;;;;;;;;;;;;-143.57;25.03;50957.09;4964122;28;19926;-66
2022/10/31 12:47:00;;;;;;;;;;;;;;;-143.57;24.77;50973.00;4963322;28;20009;-67
2022/10/31 12:49:49;;;;;;;;;;;;;;;-143.57;24.40;50933.25;4963677;28;19934;-67
2022/10/31 12:52:34;;;;;;;;;;;;;;;-143.57;23.26;50923.31;4916984;29;19934;-66
2022/10/31 12:55:03;;;;;;;;;;;;;;;-143.57;23.55;50945.19;4927838;28;20605;-66
2022/10/31 12:57:51;;;;;;;;;;;;;;;-143.57;23.25;50945.19;4918920;29;19939;-66
2022/10/31 13:00:18;;;;;;;;;;;;;;;-143.57;23.13;50923.31;4921891;29;20022;-66